sensor_id;sensor_type;location;lat;lon;timestamp;pressure;altitude;pressure_sealevel;temperature;humidity
77482;BME280;66582;43.004;-75.010;2023-07-22T00:00:00;99328.00;;;24.45;56.44
77482;BME280;66582;43.004;-75.010;2023-07-22T00:02:26;99325.03;;;24.33;55.84
77482;BME280;66582;43.004;-75.010;2023-07-22T00:04:50;99331.39;;;24.62;54.72
77482;BME280;66582;43.004;-75.010;2023-07-22T00:07:16;99350.28;;;22.01;65.97
77482;BME280;66582;43.004;-75.010;2023-07-22T00:09:42;99340.33;;;23.73;59.80
77482;BME280;66582;43.004;-75.010;2023-07-22T00:12:12;99342.14;;;25.19;53.49
77482;BME280;66582;43.004;-75.010;2023-07-22T00:14:31;99351.07;;;23.51;58.68
77482;BME280;66582;43.004;-75.010;2023-07-22T00:16:57;99343.67;;;24.59;54.73
77482;BME280;66582;43.004;-75.010;2023-07-22T00:19:22;99351.50;;;25.60;51.30
77482;BME280;66582;43.004;-75.010;2023-07-22T00:21:47;99350.22;;;25.40;53.88
77482;BME280;66582;43.004;-75.010;2023-07-22T00:24:13;99353.47;;;24.65;53.99
77482;BME280;66582;43.004;-75.010;2023-07-22T00:26:39;99352.32;;;24.49;55.35
77482;BME280;66582;43.004;-75.010;2023-07-22T00:29:09;99356.85;;;25.53;52.10
77482;BME280;66582;43.004;-75.010;2023-07-22T00:31:29;99357.82;;;25.40;53.15
77482;BME280;66582;43.004;-75.010;2023-07-22T00:33:55;99359.46;;;24.51;55.13
77482;BME280;66582;43.004;-75.010;2023-07-22T00:36:20;99361.21;;;25.61;52.29
77482;BME280;66582;43.004;-75.010;2023-07-22T00:38:44;99364.64;;;25.60;50.41
77482;BME280;66582;43.004;-75.010;2023-07-22T00:41:10;99365.49;;;25.52;51.88
77482;BME280;66582;43.004;-75.010;2023-07-22T00:43:35;99369.86;;;25.01;53.94
77482;BME280;66582;43.004;-75.010;2023-07-22T00:46:01;99368.36;;;25.62;52.38
77482;BME280;66582;43.004;-75.010;2023-07-22T00:48:26;99368.78;;;25.05;52.32
77482;BME280;66582;43.004;-75.010;2023-07-22T00:50:51;99372.61;;;26.89;49.44
77482;BME280;66582;43.004;-75.010;2023-07-22T00:53:17;99376.07;;;26.08;51.23
77482;BME280;66582;43.004;-75.010;2023-07-22T00:55:42;99374.21;;;24.04;56.41
77482;BME280;66582;43.004;-75.010;2023-07-22T00:58:07;99375.35;;;25.91;53.61
77482;BME280;66582;43.004;-75.010;2023-07-22T01:00:32;99375.38;;;27.09;50.65
77482;BME280;66582;43.004;-75.010;2023-07-22T01:02:57;99380.74;;;24.69;55.18
77482;BME280;66582;43.004;-75.010;2023-07-22T01:05:23;99390.35;;;24.72;56.18
77482;BME280;66582;43.004;-75.010;2023-07-22T01:07:48;99392.73;;;24.29;56.99
77482;BME280;66582;43.004;-75.010;2023-07-22T01:10:13;99398.55;;;22.96;60.76
77482;BME280;66582;43.004;-75.010;2023-07-22T01:12:38;99398.63;;;24.33;57.96
77482;BME280;66582;43.004;-75.010;2023-07-22T01:15:04;99397.22;;;25.43;55.99
77482;BME280;66582;43.004;-75.010;2023-07-22T01:17:29;99405.06;;;24.90;57.27
77482;BME280;66582;43.004;-75.010;2023-07-22T01:19:54;99404.85;;;25.35;56.90
77482;BME280;66582;43.004;-75.010;2023-07-22T01:22:18;99406.57;;;24.93;56.45
77482;BME280;66582;43.004;-75.010;2023-07-22T01:24:46;99408.64;;;24.94;56.52
77482;BME280;66582;43.004;-75.010;2023-07-22T01:27:09;99408.36;;;25.92;55.72
77482;BME280;66582;43.004;-75.010;2023-07-22T01:29:34;99408.14;;;25.99;53.37
77482;BME280;66582;43.004;-75.010;2023-07-22T01:32:00;99412.53;;;25.40;55.13
77482;BME280;66582;43.004;-75.010;2023-07-22T01:34:24;99418.02;;;25.01;56.49
77482;BME280;66582;43.004;-75.010;2023-07-22T01:36:51;99430.18;;;22.56;63.82
77482;BME280;66582;43.004;-75.010;2023-07-22T01:39:16;99426.40;;;24.41;60.12
77482;BME280;66582;43.004;-75.010;2023-07-22T01:41:41;99420.88;;;25.10;57.68
77482;BME280;66582;43.004;-75.010;2023-07-22T01:44:05;99416.02;;;24.92;56.17
77482;BME280;66582;43.004;-75.010;2023-07-22T01:46:30;99421.06;;;22.77;61.79
77482;BME280;66582;43.004;-75.010;2023-07-22T01:48:56;99421.63;;;22.72;65.32
77482;BME280;66582;43.004;-75.010;2023-07-22T01:51:21;99425.61;;;21.58;73.94
77482;BME280;66582;43.004;-75.010;2023-07-22T01:53:47;99417.96;;;23.90;62.32
77482;BME280;66582;43.004;-75.010;2023-07-22T01:56:13;99409.14;;;25.68;56.43
77482;BME280;66582;43.004;-75.010;2023-07-22T01:58:38;99410.48;;;25.88;55.87
77482;BME280;66582;43.004;-75.010;2023-07-22T02:01:03;99413.15;;;24.25;57.53
77482;BME280;66582;43.004;-75.010;2023-07-22T02:03:27;99415.94;;;23.91;61.51
77482;BME280;66582;43.004;-75.010;2023-07-22T02:05:53;99414.49;;;23.67;61.80
77482;BME280;66582;43.004;-75.010;2023-07-22T02:08:20;99416.56;;;24.08;61.98
77482;BME280;66582;43.004;-75.010;2023-07-22T02:10:43;99418.27;;;23.34;64.24
77482;BME280;66582;43.004;-75.010;2023-07-22T02:13:09;99415.98;;;25.73;56.56
77482;BME280;66582;43.004;-75.010;2023-07-22T02:15:34;99414.44;;;25.84;55.47
77482;BME280;66582;43.004;-75.010;2023-07-22T02:17:59;99417.97;;;27.33;52.06
77482;BME280;66582;43.004;-75.010;2023-07-22T02:20:24;99430.35;;;22.67;66.89
77482;BME280;66582;43.004;-75.010;2023-07-22T02:22:49;99422.70;;;24.95;58.14
77482;BME280;66582;43.004;-75.010;2023-07-22T02:25:15;99428.85;;;21.53;73.83
77482;BME280;66582;43.004;-75.010;2023-07-22T02:27:39;99424.56;;;24.43;63.61
77482;BME280;66582;43.004;-75.010;2023-07-22T02:30:07;99419.63;;;24.90;59.76
77482;BME280;66582;43.004;-75.010;2023-07-22T02:32:31;99423.86;;;24.54;60.26
77482;BME280;66582;43.004;-75.010;2023-07-22T02:34:55;99426.62;;;24.67;58.90
77482;BME280;66582;43.004;-75.010;2023-07-22T02:37:20;99424.96;;;25.29;57.99
77482;BME280;66582;43.004;-75.010;2023-07-22T02:39:45;99420.94;;;25.93;54.78
77482;BME280;66582;43.004;-75.010;2023-07-22T02:42:10;99424.66;;;25.12;56.59
77482;BME280;66582;43.004;-75.010;2023-07-22T02:44:36;99431.08;;;22.88;64.15
77482;BME280;66582;43.004;-75.010;2023-07-22T02:47:02;99424.84;;;24.38;59.35
77482;BME280;66582;43.004;-75.010;2023-07-22T02:49:26;99428.25;;;24.44;62.58
77482;BME280;66582;43.004;-75.010;2023-07-22T02:51:51;99427.08;;;23.36;63.13
77482;BME280;66582;43.004;-75.010;2023-07-22T02:54:17;99422.91;;;24.67;59.97
77482;BME280;66582;43.004;-75.010;2023-07-22T02:56:42;99431.39;;;21.77;66.85
77482;BME280;66582;43.004;-75.010;2023-07-22T02:59:07;99429.79;;;20.58;82.26
77482;BME280;66582;43.004;-75.010;2023-07-22T03:01:32;99425.27;;;22.79;72.53
77482;BME280;66582;43.004;-75.010;2023-07-22T03:03:58;99427.66;;;21.74;72.60
77482;BME280;66582;43.004;-75.010;2023-07-22T03:06:22;99420.13;;;23.76;65.29
77482;BME280;66582;43.004;-75.010;2023-07-22T03:08:47;99426.83;;;22.56;70.57
77482;BME280;66582;43.004;-75.010;2023-07-22T03:11:13;99421.62;;;24.36;63.13
77482;BME280;66582;43.004;-75.010;2023-07-22T03:13:38;99418.55;;;25.50;58.81
77482;BME280;66582;43.004;-75.010;2023-07-22T03:16:03;99422.94;;;26.06;57.38
77482;BME280;66582;43.004;-75.010;2023-07-22T03:18:28;99424.40;;;25.34;58.09
77482;BME280;66582;43.004;-75.010;2023-07-22T03:20:53;99422.62;;;24.98;61.53
77482;BME280;66582;43.004;-75.010;2023-07-22T03:23:18;99423.55;;;25.51;60.31
77482;BME280;66582;43.004;-75.010;2023-07-22T03:25:44;99422.04;;;25.89;58.98
77482;BME280;66582;43.004;-75.010;2023-07-22T03:28:09;99426.91;;;26.01;58.81
77482;BME280;66582;43.004;-75.010;2023-07-22T03:30:34;99423.92;;;26.09;58.48
77482;BME280;66582;43.004;-75.010;2023-07-22T03:33:00;99426.78;;;26.40;58.02
77482;BME280;66582;43.004;-75.010;2023-07-22T03:35:25;99430.24;;;25.92;59.71
77482;BME280;66582;43.004;-75.010;2023-07-22T03:37:49;99426.52;;;27.32;56.22
77482;BME280;66582;43.004;-75.010;2023-07-22T03:40:15;99431.19;;;26.28;58.09
77482;BME280;66582;43.004;-75.010;2023-07-22T03:42:40;99440.70;;;24.43;60.37
77482;BME280;66582;43.004;-75.010;2023-07-22T03:45:06;99438.70;;;24.84;61.66
77482;BME280;66582;43.004;-75.010;2023-07-22T03:47:31;99437.50;;;25.86;58.60
77482;BME280;66582;43.004;-75.010;2023-07-22T03:49:55;99444.39;;;24.73;59.07
77482;BME280;66582;43.004;-75.010;2023-07-22T03:52:23;99446.07;;;25.56;58.16
77482;BME280;66582;43.004;-75.010;2023-07-22T03:54:47;99443.10;;;25.95;55.95
77482;BME280;66582;43.004;-75.010;2023-07-22T03:57:11;99440.77;;;25.03;56.58
77482;BME280;66582;43.004;-75.010;2023-07-22T03:59:38;99443.23;;;25.54;56.65
77482;BME280;66582;43.004;-75.010;2023-07-22T04:02:01;99441.09;;;25.68;55.75
77482;BME280;66582;43.004;-75.010;2023-07-22T04:04:27;99442.76;;;23.86;59.61
77482;BME280;66582;43.004;-75.010;2023-07-22T04:06:57;99441.53;;;25.32;58.38
77482;BME280;66582;43.004;-75.010;2023-07-22T04:09:17;99443.89;;;24.56;61.57
77482;BME280;66582;43.004;-75.010;2023-07-22T04:11:42;99443.38;;;25.41;58.40
77482;BME280;66582;43.004;-75.010;2023-07-22T04:14:07;99439.34;;;26.19;55.52
77482;BME280;66582;43.004;-75.010;2023-07-22T04:16:33;99444.69;;;25.11;57.49
77482;BME280;66582;43.004;-75.010;2023-07-22T04:18:57;99440.04;;;25.53;56.64
77482;BME280;66582;43.004;-75.010;2023-07-22T04:21:23;99442.88;;;25.06;58.42
77482;BME280;66582;43.004;-75.010;2023-07-22T04:23:48;99443.06;;;25.70;56.90
77482;BME280;66582;43.004;-75.010;2023-07-22T04:26:13;99441.24;;;25.41;56.30
77482;BME280;66582;43.004;-75.010;2023-07-22T04:28:38;99440.57;;;26.42;53.66
77482;BME280;66582;43.004;-75.010;2023-07-22T04:31:04;99448.03;;;25.22;56.86
77482;BME280;66582;43.004;-75.010;2023-07-22T04:33:29;99452.68;;;25.36;55.86
77482;BME280;66582;43.004;-75.010;2023-07-22T04:35:57;99451.56;;;25.26;56.45
77482;BME280;66582;43.004;-75.010;2023-07-22T04:38:19;99453.36;;;25.15;57.35
77482;BME280;66582;43.004;-75.010;2023-07-22T04:40:44;99456.60;;;25.42;56.96
77482;BME280;66582;43.004;-75.010;2023-07-22T04:43:09;99459.78;;;26.04;55.71
77482;BME280;66582;43.004;-75.010;2023-07-22T04:45:35;99462.94;;;25.68;56.06
77482;BME280;66582;43.004;-75.010;2023-07-22T04:48:00;99462.09;;;24.73;57.37
77482;BME280;66582;43.004;-75.010;2023-07-22T04:50:25;99465.12;;;24.61;57.65
77482;BME280;66582;43.004;-75.010;2023-07-22T04:52:50;99466.75;;;24.97;57.42
77482;BME280;66582;43.004;-75.010;2023-07-22T04:55:15;99460.14;;;25.38;55.92
77482;BME280;66582;43.004;-75.010;2023-07-22T04:57:41;99462.89;;;25.16;55.79
77482;BME280;66582;43.004;-75.010;2023-07-22T05:00:06;99463.29;;;24.85;57.52
77482;BME280;66582;43.004;-75.010;2023-07-22T05:02:32;99467.85;;;24.31;58.77
77482;BME280;66582;43.004;-75.010;2023-07-22T05:04:56;99470.24;;;24.24;59.26
77482;BME280;66582;43.004;-75.010;2023-07-22T05:07:22;99470.34;;;24.31;59.78
77482;BME280;66582;43.004;-75.010;2023-07-22T05:09:47;99468.42;;;24.43;59.26
77482;BME280;66582;43.004;-75.010;2023-07-22T05:12:12;99473.22;;;22.94;65.06
77482;BME280;66582;43.004;-75.010;2023-07-22T05:14:36;99467.96;;;24.28;60.43
77482;BME280;66582;43.004;-75.010;2023-07-22T05:17:02;99464.20;;;24.29;59.76
77482;BME280;66582;43.004;-75.010;2023-07-22T05:19:27;99460.05;;;24.42;58.79
77482;BME280;66582;43.004;-75.010;2023-07-22T05:21:53;99460.55;;;24.64;58.22
77482;BME280;66582;43.004;-75.010;2023-07-22T05:24:17;99457.42;;;24.32;59.10
77482;BME280;66582;43.004;-75.010;2023-07-22T05:26:43;99456.61;;;23.88;60.28
77482;BME280;66582;43.004;-75.010;2023-07-22T05:29:08;99460.36;;;24.44;58.62
77482;BME280;66582;43.004;-75.010;2023-07-22T05:31:33;99464.19;;;23.05;62.12
77482;BME280;66582;43.004;-75.010;2023-07-22T05:33:58;99470.30;;;23.07;64.57
77482;BME280;66582;43.004;-75.010;2023-07-22T05:36:24;99466.47;;;23.33;63.90
77482;BME280;66582;43.004;-75.010;2023-07-22T05:38:48;99463.51;;;23.61;62.27
77482;BME280;66582;43.004;-75.010;2023-07-22T05:41:14;99462.77;;;23.60;61.80
77482;BME280;66582;43.004;-75.010;2023-07-22T05:43:38;99463.12;;;24.16;59.98
77482;BME280;66582;43.004;-75.010;2023-07-22T05:46:04;99470.36;;;22.91;64.91
77482;BME280;66582;43.004;-75.010;2023-07-22T05:48:29;99463.84;;;23.80;61.52
77482;BME280;66582;43.004;-75.010;2023-07-22T05:50:54;99457.16;;;24.07;60.89
77482;BME280;66582;43.004;-75.010;2023-07-22T05:53:19;99460.59;;;24.18;60.20
77482;BME280;66582;43.004;-75.010;2023-07-22T05:55:44;99458.42;;;23.94;60.24
77482;BME280;66582;43.004;-75.010;2023-07-22T05:58:15;99458.53;;;23.35;62.44
77482;BME280;66582;43.004;-75.010;2023-07-22T06:00:35;99464.19;;;23.13;62.92
77482;BME280;66582;43.004;-75.010;2023-07-22T06:03:00;99463.20;;;23.05;63.22
77482;BME280;66582;43.004;-75.010;2023-07-22T06:05:25;99463.58;;;23.00;63.72
77482;BME280;66582;43.004;-75.010;2023-07-22T06:07:50;99457.80;;;23.90;60.72
77482;BME280;66582;43.004;-75.010;2023-07-22T06:10:16;99460.13;;;23.83;60.55
77482;BME280;66582;43.004;-75.010;2023-07-22T06:12:40;99467.10;;;22.27;64.23
77482;BME280;66582;43.004;-75.010;2023-07-22T06:15:06;99461.67;;;21.97;69.53
77482;BME280;66582;43.004;-75.010;2023-07-22T06:17:30;99461.72;;;22.48;66.53
77482;BME280;66582;43.004;-75.010;2023-07-22T06:19:56;99462.68;;;20.82;75.35
77482;BME280;66582;43.004;-75.010;2023-07-22T06:22:21;99462.40;;;21.82;70.96
77482;BME280;66582;43.004;-75.010;2023-07-22T06:24:46;99462.98;;;21.70;71.22
77482;BME280;66582;43.004;-75.010;2023-07-22T06:27:11;99463.74;;;20.63;73.97
77482;BME280;66582;43.004;-75.010;2023-07-22T06:29:37;99466.11;;;22.25;69.79
77482;BME280;66582;43.004;-75.010;2023-07-22T06:32:02;99467.00;;;20.96;72.64
77482;BME280;66582;43.004;-75.010;2023-07-22T06:34:27;99466.46;;;22.69;67.72
77482;BME280;66582;43.004;-75.010;2023-07-22T06:36:52;99466.69;;;21.75;72.33
77482;BME280;66582;43.004;-75.010;2023-07-22T06:39:18;99465.99;;;22.48;68.53
77482;BME280;66582;43.004;-75.010;2023-07-22T06:41:42;99461.29;;;22.61;67.40
77482;BME280;66582;43.004;-75.010;2023-07-22T06:44:07;99457.26;;;22.76;65.03
77482;BME280;66582;43.004;-75.010;2023-07-22T06:46:33;99456.86;;;20.50;73.74
77482;BME280;66582;43.004;-75.010;2023-07-22T06:48:59;99463.81;;;19.49;80.50
77482;BME280;66582;43.004;-75.010;2023-07-22T06:51:23;99456.27;;;21.45;73.80
77482;BME280;66582;43.004;-75.010;2023-07-22T06:53:48;99459.13;;;21.54;74.17
77482;BME280;66582;43.004;-75.010;2023-07-22T06:56:13;99459.01;;;22.17;69.82
77482;BME280;66582;43.004;-75.010;2023-07-22T06:58:38;99461.09;;;22.21;68.19
77482;BME280;66582;43.004;-75.010;2023-07-22T07:01:03;99458.09;;;22.77;65.84
77482;BME280;66582;43.004;-75.010;2023-07-22T07:03:28;99456.54;;;23.11;63.55
77482;BME280;66582;43.004;-75.010;2023-07-22T07:05:54;99457.37;;;21.23;72.46
77482;BME280;66582;43.004;-75.010;2023-07-22T07:08:19;99456.03;;;22.39;68.08
77482;BME280;66582;43.004;-75.010;2023-07-22T07:10:44;99457.30;;;23.14;64.49
77482;BME280;66582;43.004;-75.010;2023-07-22T07:13:09;99455.21;;;23.39;63.06
77482;BME280;66582;43.004;-75.010;2023-07-22T07:15:35;99456.52;;;20.55;78.18
77482;BME280;66582;43.004;-75.010;2023-07-22T07:18:00;99464.07;;;18.73;89.19
77482;BME280;66582;43.004;-75.010;2023-07-22T07:20:25;99456.72;;;21.07;75.69
77482;BME280;66582;43.004;-75.010;2023-07-22T07:22:50;99454.96;;;22.09;71.58
77482;BME280;66582;43.004;-75.010;2023-07-22T07:25:15;99461.68;;;20.11;77.88
77482;BME280;66582;43.004;-75.010;2023-07-22T07:27:40;99456.88;;;21.06;75.64
77482;BME280;66582;43.004;-75.010;2023-07-22T07:30:07;99458.31;;;21.46;73.49
77482;BME280;66582;43.004;-75.010;2023-07-22T07:32:31;99457.72;;;20.59;74.37
77482;BME280;66582;43.004;-75.010;2023-07-22T07:34:56;99461.19;;;20.80;77.93
77482;BME280;66582;43.004;-75.010;2023-07-22T07:37:22;99458.56;;;22.02;72.00
77482;BME280;66582;43.004;-75.010;2023-07-22T07:39:47;99461.31;;;22.34;69.07
77482;BME280;66582;43.004;-75.010;2023-07-22T07:42:11;99461.96;;;21.95;72.33
77482;BME280;66582;43.004;-75.010;2023-07-22T07:44:36;99462.51;;;21.44;72.85
77482;BME280;66582;43.004;-75.010;2023-07-22T07:47:01;99465.50;;;22.64;67.45
77482;BME280;66582;43.004;-75.010;2023-07-22T07:49:26;99459.52;;;23.74;63.57
77482;BME280;66582;43.004;-75.010;2023-07-22T07:51:52;99462.94;;;23.67;62.29
77482;BME280;66582;43.004;-75.010;2023-07-22T07:54:17;99461.61;;;23.59;61.84
77482;BME280;66582;43.004;-75.010;2023-07-22T07:56:42;99465.25;;;23.43;63.69
77482;BME280;66582;43.004;-75.010;2023-07-22T07:59:07;99459.06;;;23.99;61.16
77482;BME280;66582;43.004;-75.010;2023-07-22T08:01:33;99462.74;;;23.24;62.73
77482;BME280;66582;43.004;-75.010;2023-07-22T08:03:58;99459.45;;;23.20;62.75
77482;BME280;66582;43.004;-75.010;2023-07-22T08:06:23;99462.21;;;22.82;63.90
77482;BME280;66582;43.004;-75.010;2023-07-22T08:08:48;99463.26;;;22.51;65.27
77482;BME280;66582;43.004;-75.010;2023-07-22T08:11:14;99458.35;;;23.19;63.55
77482;BME280;66582;43.004;-75.010;2023-07-22T08:13:39;99465.12;;;23.20;62.78
77482;BME280;66582;43.004;-75.010;2023-07-22T08:16:06;99461.57;;;24.17;60.59
77482;BME280;66582;43.004;-75.010;2023-07-22T08:18:29;99463.92;;;23.76;60.63
77482;BME280;66582;43.004;-75.010;2023-07-22T08:20:55;99467.20;;;23.51;61.51
77482;BME280;66582;43.004;-75.010;2023-07-22T08:23:19;99470.45;;;23.41;61.57
77482;BME280;66582;43.004;-75.010;2023-07-22T08:25:44;99475.38;;;22.92;62.48
77482;BME280;66582;43.004;-75.010;2023-07-22T08:28:09;99475.02;;;23.63;61.75
77482;BME280;66582;43.004;-75.010;2023-07-22T08:30:35;99485.59;;;23.80;60.45
77482;BME280;66582;43.004;-75.010;2023-07-22T08:33:00;99487.94;;;23.92;60.63
77482;BME280;66582;43.004;-75.010;2023-07-22T08:35:25;99497.83;;;21.77;66.28
77482;BME280;66582;43.004;-75.010;2023-07-22T08:37:50;99502.47;;;22.54;66.36
77482;BME280;66582;43.004;-75.010;2023-07-22T08:40:17;99501.82;;;22.71;64.49
77482;BME280;66582;43.004;-75.010;2023-07-22T08:42:41;99508.35;;;22.73;64.53
77482;BME280;66582;43.004;-75.010;2023-07-22T08:45:08;99508.31;;;23.47;62.65
77482;BME280;66582;43.004;-75.010;2023-07-22T08:47:32;99514.42;;;23.09;64.73
77482;BME280;66582;43.004;-75.010;2023-07-22T08:49:58;99513.73;;;23.10;64.07
77482;BME280;66582;43.004;-75.010;2023-07-22T08:52:22;99508.47;;;23.89;61.86
77482;BME280;66582;43.004;-75.010;2023-07-22T08:54:46;99508.91;;;23.59;61.99
77482;BME280;66582;43.004;-75.010;2023-07-22T08:57:12;99511.41;;;23.66;61.01
77482;BME280;66582;43.004;-75.010;2023-07-22T08:59:37;99514.63;;;23.47;61.62
77482;BME280;66582;43.004;-75.010;2023-07-22T09:02:03;99520.42;;;23.24;62.36
77482;BME280;66582;43.004;-75.010;2023-07-22T09:04:27;99522.91;;;23.60;60.92
77482;BME280;66582;43.004;-75.010;2023-07-22T09:06:52;99526.97;;;23.41;61.19
77482;BME280;66582;43.004;-75.010;2023-07-22T09:09:17;99527.82;;;23.47;62.41
77482;BME280;66582;43.004;-75.010;2023-07-22T09:11:43;99528.15;;;23.63;60.37
77482;BME280;66582;43.004;-75.010;2023-07-22T09:14:07;99531.31;;;23.37;59.77
77482;BME280;66582;43.004;-75.010;2023-07-22T09:16:32;99534.17;;;23.77;59.27
77482;BME280;66582;43.004;-75.010;2023-07-22T09:18:58;99536.14;;;23.45;60.55
77482;BME280;66582;43.004;-75.010;2023-07-22T09:21:24;99538.45;;;23.87;59.55
77482;BME280;66582;43.004;-75.010;2023-07-22T09:23:49;99543.56;;;23.79;58.66
77482;BME280;66582;43.004;-75.010;2023-07-22T09:26:15;99547.67;;;23.97;59.20
77482;BME280;66582;43.004;-75.010;2023-07-22T09:28:50;99557.13;;;22.57;62.07
77482;BME280;66582;43.004;-75.010;2023-07-22T09:31:04;99563.27;;;23.08;60.68
77482;BME280;66582;43.004;-75.010;2023-07-22T09:33:35;99565.63;;;23.38;58.85
77482;BME280;66582;43.004;-75.010;2023-07-22T09:35:55;99569.82;;;22.35;62.96
77482;BME280;66582;43.004;-75.010;2023-07-22T09:38:23;99571.77;;;23.53;59.93
77482;BME280;66582;43.004;-75.010;2023-07-22T09:40:45;99570.16;;;23.49;59.59
77482;BME280;66582;43.004;-75.010;2023-07-22T09:43:11;99575.37;;;23.46;59.05
77482;BME280;66582;43.004;-75.010;2023-07-22T09:45:35;99583.43;;;23.47;59.22
77482;BME280;66582;43.004;-75.010;2023-07-22T09:48:00;99588.79;;;23.21;61.39
77482;BME280;66582;43.004;-75.010;2023-07-22T09:50:27;99595.67;;;22.44;63.09
77482;BME280;66582;43.004;-75.010;2023-07-22T09:52:52;99603.72;;;19.54;79.63
77482;BME280;66582;43.004;-75.010;2023-07-22T09:55:18;99597.03;;;22.02;69.10
77482;BME280;66582;43.004;-75.010;2023-07-22T09:57:44;99598.07;;;23.35;62.95
77482;BME280;66582;43.004;-75.010;2023-07-22T10:00:07;99598.56;;;22.88;62.89
77482;BME280;66582;43.004;-75.010;2023-07-22T10:02:33;99594.85;;;23.48;61.16
77482;BME280;66582;43.004;-75.010;2023-07-22T10:04:59;99598.62;;;21.77;67.20
77482;BME280;66582;43.004;-75.010;2023-07-22T10:07:22;99596.37;;;22.11;68.09
77482;BME280;66582;43.004;-75.010;2023-07-22T10:09:48;99598.13;;;23.50;63.53
77482;BME280;66582;43.004;-75.010;2023-07-22T10:12:12;99597.56;;;24.01;62.45
77482;BME280;66582;43.004;-75.010;2023-07-22T10:14:37;99596.18;;;24.21;60.65
77482;BME280;66582;43.004;-75.010;2023-07-22T10:17:03;99601.12;;;23.31;61.75
77482;BME280;66582;43.004;-75.010;2023-07-22T10:19:28;99601.19;;;22.73;63.90
77482;BME280;66582;43.004;-75.010;2023-07-22T10:21:53;99603.15;;;23.54;60.97
77482;BME280;66582;43.004;-75.010;2023-07-22T10:24:18;99598.67;;;24.79;57.73
77482;BME280;66582;43.004;-75.010;2023-07-22T10:26:43;99601.79;;;21.33;70.50
77482;BME280;66582;43.004;-75.010;2023-07-22T10:29:09;99600.37;;;22.57;64.09
77482;BME280;66582;43.004;-75.010;2023-07-22T10:31:33;99599.57;;;22.50;63.93
77482;BME280;66582;43.004;-75.010;2023-07-22T10:34:00;99602.91;;;23.89;61.15
77482;BME280;66582;43.004;-75.010;2023-07-22T10:36:29;99604.45;;;23.58;61.61
77482;BME280;66582;43.004;-75.010;2023-07-22T10:38:55;99600.68;;;23.41;61.52
77482;BME280;66582;43.004;-75.010;2023-07-22T10:41:15;99600.69;;;23.36;61.12
77482;BME280;66582;43.004;-75.010;2023-07-22T10:43:40;99600.24;;;23.37;61.22
77482;BME280;66582;43.004;-75.010;2023-07-22T10:46:08;99598.70;;;23.87;60.10
77482;BME280;66582;43.004;-75.010;2023-07-22T10:48:36;99589.73;;;25.36;55.97
77482;BME280;66582;43.004;-75.010;2023-07-22T10:51:00;99590.18;;;24.67;56.55
77482;BME280;66582;43.004;-75.010;2023-07-22T10:53:29;99588.92;;;24.79;56.61
77482;BME280;66582;43.004;-75.010;2023-07-22T10:56:04;99587.55;;;25.27;55.12
77482;BME280;66582;43.004;-75.010;2023-07-22T10:58:10;99587.73;;;24.99;55.16
77482;BME280;66582;43.004;-75.010;2023-07-22T11:00:35;99593.97;;;24.23;57.73
77482;BME280;66582;43.004;-75.010;2023-07-22T11:03:10;99595.45;;;24.31;57.78
77482;BME280;66582;43.004;-75.010;2023-07-22T11:07:51;99598.45;;;23.75;59.50
77482;BME280;66582;43.004;-75.010;2023-07-22T11:10:17;99600.70;;;23.75;59.27
77482;BME280;66582;43.004;-75.010;2023-07-22T11:12:43;99598.87;;;22.70;61.77
77482;BME280;66582;43.004;-75.010;2023-07-22T11:15:07;99600.65;;;22.91;62.06
77482;BME280;66582;43.004;-75.010;2023-07-22T11:17:32;99599.29;;;22.54;63.94
77482;BME280;66582;43.004;-75.010;2023-07-22T11:19:58;99602.62;;;23.21;61.68
77482;BME280;66582;43.004;-75.010;2023-07-22T11:22:22;99601.01;;;23.52;60.78
77482;BME280;66582;43.004;-75.010;2023-07-22T11:24:47;99604.74;;;22.92;64.58
77482;BME280;66582;43.004;-75.010;2023-07-22T11:27:13;99601.17;;;23.19;62.65
77482;BME280;66582;43.004;-75.010;2023-07-22T11:29:39;99597.92;;;21.93;67.57
77482;BME280;66582;43.004;-75.010;2023-07-22T11:32:04;99594.56;;;22.74;62.86
77482;BME280;66582;43.004;-75.010;2023-07-22T11:34:28;99596.38;;;22.84;63.45
77482;BME280;66582;43.004;-75.010;2023-07-22T11:36:55;99591.04;;;23.84;61.04
77482;BME280;66582;43.004;-75.010;2023-07-22T11:39:20;99594.24;;;22.79;63.70
77482;BME280;66582;43.004;-75.010;2023-07-22T11:41:45;99590.91;;;22.61;64.74
77482;BME280;66582;43.004;-75.010;2023-07-22T11:44:09;99595.83;;;22.36;66.21
77482;BME280;66582;43.004;-75.010;2023-07-22T11:46:35;99598.94;;;20.44;75.21
77482;BME280;66582;43.004;-75.010;2023-07-22T11:48:59;99606.95;;;20.02;80.71
77482;BME280;66582;43.004;-75.010;2023-07-22T11:51:25;99606.22;;;21.23;74.52
77482;BME280;66582;43.004;-75.010;2023-07-22T11:53:50;99612.50;;;19.61;82.10
77482;BME280;66582;43.004;-75.010;2023-07-22T11:56:18;99609.14;;;21.12;76.81
77482;BME280;66582;43.004;-75.010;2023-07-22T11:58:40;99607.75;;;21.10;77.88
77482;BME280;66582;43.004;-75.010;2023-07-22T12:01:07;99608.36;;;20.73;79.33
77482;BME280;66582;43.004;-75.010;2023-07-22T12:03:32;99609.21;;;21.75;75.62
77482;BME280;66582;43.004;-75.010;2023-07-22T12:05:56;99607.67;;;22.00;71.72
77482;BME280;66582;43.004;-75.010;2023-07-22T12:08:20;99611.01;;;21.60;74.29
77482;BME280;66582;43.004;-75.010;2023-07-22T12:13:11;99614.16;;;22.12;70.46
77482;BME280;66582;43.004;-75.010;2023-07-22T12:15:36;99617.46;;;21.83;72.92
77482;BME280;66582;43.004;-75.010;2023-07-22T12:18:01;99619.17;;;21.83;72.30
77482;BME280;66582;43.004;-75.010;2023-07-22T12:20:27;99615.05;;;22.79;68.84
77482;BME280;66582;43.004;-75.010;2023-07-22T12:22:51;99614.49;;;22.67;69.26
77482;BME280;66582;43.004;-75.010;2023-07-22T12:25:17;99614.68;;;22.98;67.18
77482;BME280;66582;43.004;-75.010;2023-07-22T12:27:43;99615.27;;;23.52;65.51
77482;BME280;66582;43.004;-75.010;2023-07-22T12:30:08;99610.78;;;23.45;64.97
77482;BME280;66582;43.004;-75.010;2023-07-22T12:32:33;99614.42;;;22.56;67.44